Meridien — FT2092 — position and weather

sailwx.info

Track history (hours):
 
Tides and Currents Weather Stations Pressure Air Temp Water Temp Dewpoint Dewpoint Depression Visibility Wind Speed Wind Dir Waves Ship Positions

Meridien

Last reported at 2017-Aug-22 12:48 UTC. Time now 2017-Aug-24 07:00 UTC.
Position N 43°13' E 003°47'.

Length 21 m.

MMSI: 227321780.

Date/timePositionNaut miles runAvg speedWind from/ knotsBaromVisibWave heightAir tempDewpointWater temp
2017-Aug-22 12:48N 43°13' E 003°47'4 4.2
2017-Aug-22 11:48N 43°09' E 003°48'  
2017-Aug-18 14:00N 43°22' E 003°43'510.3
2017-Aug-18 13:30N 43°17' E 003°45'2 3.7
2017-Aug-18 12:59N 43°15' E 003°46'2 4.2
2017-Aug-18 12:30N 43°13' E 003°46'12 3.1
2017-Aug-18 08:38N 43°03' E 003°56'1 4.2
2017-Aug-18 08:29N 43°03' E 003°56'2 4.2
2017-Aug-18 08:00N 43°02' E 003°59'3 4.2
2017-Aug-18 07:20N 43°01' E 004°03'2 4.3
2017-Aug-18 06:59N 43°01' E 004°05'0 0.5
2017-Aug-18 06:29N 43°01' E 004°05'18 4.0
2017-Aug-18 02:00N 43°14' E 003°47'9 8.7
2017-Aug-18 00:58N 43°22' E 003°43'20 0.5
2017-Aug-16 04:48N 43°05' E 003°57'4 4.2
2017-Aug-16 03:54N 43°08' E 003°53'7 4.3
2017-Aug-16 02:14N 43°14' E 003°48'2 4.4
2017-Aug-16 01:48N 43°15' E 003°47'  
Track history (hours):
 
Tides and Currents Weather Stations Pressure Air Temp Water Temp Dewpoint Dewpoint Depression Visibility Wind Speed Wind Dir Waves Ship Positions

Meridien

Last reported at 2017-Aug-22 12:48 UTC. Time now 2017-Aug-24 07:00 UTC.
Position N 43°13' E 003°47'.

Length 21 m.

MMSI: 227321780.

Date/timePositionNaut miles runAvg speedWind from/ knotsBaromVisibWave heightAir tempDewpointWater temp
2017-Aug-22 12:48N 43°13' E 003°47'4 4.2
2017-Aug-22 11:48N 43°09' E 003°48'  
2017-Aug-18 14:00N 43°22' E 003°43'510.3
2017-Aug-18 13:30N 43°17' E 003°45'2 3.7
2017-Aug-18 12:59N 43°15' E 003°46'2 4.2
2017-Aug-18 12:30N 43°13' E 003°46'12 3.1
2017-Aug-18 08:38N 43°03' E 003°56'1 4.2
2017-Aug-18 08:29N 43°03' E 003°56'2 4.2
2017-Aug-18 08:00N 43°02' E 003°59'3 4.2
2017-Aug-18 07:20N 43°01' E 004°03'2 4.3
2017-Aug-18 06:59N 43°01' E 004°05'0 0.5
2017-Aug-18 06:29N 43°01' E 004°05'18 4.0
2017-Aug-18 02:00N 43°14' E 003°47'9 8.7
2017-Aug-18 00:58N 43°22' E 003°43'20 0.5
2017-Aug-16 04:48N 43°05' E 003°57'4 4.2
2017-Aug-16 03:54N 43°08' E 003°53'7 4.3
2017-Aug-16 02:14N 43°14' E 003°48'2 4.4
2017-Aug-16 01:48N 43°15' E 003°47'  

Dump ship's entire track history